sensor_id;sensor_type;location;lat;lon;timestamp;temperature;humidity
5842;DHT22;2947;52.276;9.946;2023-01-28T00:00:46;2.00;99.90
5842;DHT22;2947;52.276;9.946;2023-01-28T00:03:12;2.00;1.00
5842;DHT22;2947;52.276;9.946;2023-01-28T00:05:38;2.00;1.00
5842;DHT22;2947;52.276;9.946;2023-01-28T00:08:03;2.00;1.00
5842;DHT22;2947;52.276;9.946;2023-01-28T00:10:29;2.00;99.90
5842;DHT22;2947;52.276;9.946;2023-01-28T00:12:55;2.00;99.90
5842;DHT22;2947;52.276;9.946;2023-01-28T00:15:20;2.00;28.10
5842;DHT22;2947;52.276;9.946;2023-01-28T00:17:46;2.00;1.00
5842;DHT22;2947;52.276;9.946;2023-01-28T00:20:12;2.00;99.90
5842;DHT22;2947;52.276;9.946;2023-01-28T00:22:38;2.00;99.90
5842;DHT22;2947;52.276;9.946;2023-01-28T00:25:04;1.90;99.90
5842;DHT22;2947;52.276;9.946;2023-01-28T00:27:29;1.90;1.00
5842;DHT22;2947;52.276;9.946;2023-01-28T00:29:56;2.00;1.00
5842;DHT22;2947;52.276;9.946;2023-01-28T00:32:22;1.90;99.90
5842;DHT22;2947;52.276;9.946;2023-01-28T00:34:47;1.90;1.00
5842;DHT22;2947;52.276;9.946;2023-01-28T00:37:14;1.90;99.90
5842;DHT22;2947;52.276;9.946;2023-01-28T00:39:40;1.90;99.90
5842;DHT22;2947;52.276;9.946;2023-01-28T00:42:05;2.00;1.00
5842;DHT22;2947;52.276;9.946;2023-01-28T00:44:31;2.00;99.90
5842;DHT22;2947;52.276;9.946;2023-01-28T00:46:58;2.00;99.90
5842;DHT22;2947;52.276;9.946;2023-01-28T00:49:25;2.00;99.90
5842;DHT22;2947;52.276;9.946;2023-01-28T00:51:51;1.90;99.90
5842;DHT22;2947;52.276;9.946;2023-01-28T00:54:16;2.00;99.90
5842;DHT22;2947;52.276;9.946;2023-01-28T00:56:42;2.00;99.90
5842;DHT22;2947;52.276;9.946;2023-01-28T00:59:07;1.90;99.90
5842;DHT22;2947;52.276;9.946;2023-01-28T01:01:33;2.00;99.90
5842;DHT22;2947;52.276;9.946;2023-01-28T01:03:59;2.00;99.90
5842;DHT22;2947;52.276;9.946;2023-01-28T01:06:30;1.90;99.90
5842;DHT22;2947;52.276;9.946;2023-01-28T01:09:00;1.90;99.90
5842;DHT22;2947;52.276;9.946;2023-01-28T01:11:29;1.90;99.90
5842;DHT22;2947;52.276;9.946;2023-01-28T01:13:57;1.90;1.00
5842;DHT22;2947;52.276;9.946;2023-01-28T01:16:28;1.90;1.00
5842;DHT22;2947;52.276;9.946;2023-01-28T01:18:56;1.90;99.90
5842;DHT22;2947;52.276;9.946;2023-01-28T01:21:25;1.90;99.90
5842;DHT22;2947;52.276;9.946;2023-01-28T01:23:54;1.90;99.90
5842;DHT22;2947;52.276;9.946;2023-01-28T01:26:20;1.90;99.90
5842;DHT22;2947;52.276;9.946;2023-01-28T01:28:46;1.90;1.00
5842;DHT22;2947;52.276;9.946;2023-01-28T01:31:15;1.90;1.00
5842;DHT22;2947;52.276;9.946;2023-01-28T01:33:42;1.90;99.90
5842;DHT22;2947;52.276;9.946;2023-01-28T01:36:10;1.90;99.90
5842;DHT22;2947;52.276;9.946;2023-01-28T01:38:37;1.90;99.90
5842;DHT22;2947;52.276;9.946;2023-01-28T01:41:04;1.90;99.90
5842;DHT22;2947;52.276;9.946;2023-01-28T01:46:48;1.90;99.90
5842;DHT22;2947;52.276;9.946;2023-01-28T01:49:24;1.90;99.90
5842;DHT22;2947;52.276;9.946;2023-01-28T01:51:55;1.90;99.90
5842;DHT22;2947;52.276;9.946;2023-01-28T01:54:26;1.80;99.90
5842;DHT22;2947;52.276;9.946;2023-01-28T01:56:54;1.80;99.90
5842;DHT22;2947;52.276;9.946;2023-01-28T01:59:25;1.80;99.90
5842;DHT22;2947;52.276;9.946;2023-01-28T02:01:55;1.80;1.00
5842;DHT22;2947;52.276;9.946;2023-01-28T02:04:25;1.80;1.00
5842;DHT22;2947;52.276;9.946;2023-01-28T02:06:55;1.80;1.00
5842;DHT22;2947;52.276;9.946;2023-01-28T02:12:14;1.80;99.90
5842;DHT22;2947;52.276;9.946;2023-01-28T02:14:47;1.80;99.90
5842;DHT22;2947;52.276;9.946;2023-01-28T02:17:15;1.90;99.90
5842;DHT22;2947;52.276;9.946;2023-01-28T02:20:09;1.90;99.90
5842;DHT22;2947;52.276;9.946;2023-01-28T02:26:23;1.90;99.90
5842;DHT22;2947;52.276;9.946;2023-01-28T02:31:48;1.80;99.90
5842;DHT22;2947;52.276;9.946;2023-01-28T02:37:10;1.70;1.00
5842;DHT22;2947;52.276;9.946;2023-01-28T02:39:53;1.70;1.00
5842;DHT22;2947;52.276;9.946;2023-01-28T02:42:24;1.70;99.90
5842;DHT22;2947;52.276;9.946;2023-01-28T02:44:53;1.70;99.90
5842;DHT22;2947;52.276;9.946;2023-01-28T02:47:19;1.70;99.90
5842;DHT22;2947;52.276;9.946;2023-01-28T02:50:09;1.70;99.90
5842;DHT22;2947;52.276;9.946;2023-01-28T02:53:03;1.70;99.90
5842;DHT22;2947;52.276;9.946;2023-01-28T03:01:15;1.70;1.00
5842;DHT22;2947;52.276;9.946;2023-01-28T03:04:02;1.70;99.90
5842;DHT22;2947;52.276;9.946;2023-01-28T03:06:44;1.70;99.90
5842;DHT22;2947;52.276;9.946;2023-01-28T03:09:14;1.70;99.90
5842;DHT22;2947;52.276;9.946;2023-01-28T03:12:09;1.70;1.00
5842;DHT22;2947;52.276;9.946;2023-01-28T03:15:02;1.70;1.00
5842;DHT22;2947;52.276;9.946;2023-01-28T03:21:11;1.70;1.00
5842;DHT22;2947;52.276;9.946;2023-01-28T03:24:07;1.70;1.00
5842;DHT22;2947;52.276;9.946;2023-01-28T03:27:09;1.70;1.00
5842;DHT22;2947;52.276;9.946;2023-01-28T03:29:59;1.60;1.00
5842;DHT22;2947;52.276;9.946;2023-01-28T03:32:48;1.70;1.00
5842;DHT22;2947;52.276;9.946;2023-01-28T03:35:34;1.60;1.00
5842;DHT22;2947;52.276;9.946;2023-01-28T03:38:19;1.60;99.90
5842;DHT22;2947;52.276;9.946;2023-01-28T03:40:55;1.60;99.90
5842;DHT22;2947;52.276;9.946;2023-01-28T03:43:26;1.60;99.90
5842;DHT22;2947;52.276;9.946;2023-01-28T03:45:53;1.70;99.90
5842;DHT22;2947;52.276;9.946;2023-01-28T03:48:21;1.70;99.90
5842;DHT22;2947;52.276;9.946;2023-01-28T03:50:51;1.60;99.90
5842;DHT22;2947;52.276;9.946;2023-01-28T03:53:18;1.70;99.90
5842;DHT22;2947;52.276;9.946;2023-01-28T03:55:49;1.70;99.90
5842;DHT22;2947;52.276;9.946;2023-01-28T03:58:16;1.70;99.90
5842;DHT22;2947;52.276;9.946;2023-01-28T04:00:42;1.70;99.90
5842;DHT22;2947;52.276;9.946;2023-01-28T04:03:13;1.70;99.90
5842;DHT22;2947;52.276;9.946;2023-01-28T04:05:46;1.70;99.90
5842;DHT22;2947;52.276;9.946;2023-01-28T04:08:23;1.70;99.90
5842;DHT22;2947;52.276;9.946;2023-01-28T04:10:49;1.70;99.90
5842;DHT22;2947;52.276;9.946;2023-01-28T04:13:16;1.70;99.90
5842;DHT22;2947;52.276;9.946;2023-01-28T04:15:42;1.70;99.90
5842;DHT22;2947;52.276;9.946;2023-01-28T04:18:10;1.70;99.90
5842;DHT22;2947;52.276;9.946;2023-01-28T04:20:36;1.70;99.90
5842;DHT22;2947;52.276;9.946;2023-01-28T04:23:02;1.70;99.90
5842;DHT22;2947;52.276;9.946;2023-01-28T04:25:30;1.70;99.90
5842;DHT22;2947;52.276;9.946;2023-01-28T04:27:56;1.70;99.90
5842;DHT22;2947;52.276;9.946;2023-01-28T04:30:22;1.80;99.90
5842;DHT22;2947;52.276;9.946;2023-01-28T04:32:48;1.70;99.90
5842;DHT22;2947;52.276;9.946;2023-01-28T04:35:17;1.70;99.90
5842;DHT22;2947;52.276;9.946;2023-01-28T04:37:43;1.60;99.90
5842;DHT22;2947;52.276;9.946;2023-01-28T04:40:11;1.60;99.90
5842;DHT22;2947;52.276;9.946;2023-01-28T04:42:37;1.60;99.90
5842;DHT22;2947;52.276;9.946;2023-01-28T04:45:04;1.60;99.90
5842;DHT22;2947;52.276;9.946;2023-01-28T04:47:30;1.60;99.90
5842;DHT22;2947;52.276;9.946;2023-01-28T04:49:56;1.50;99.90
5842;DHT22;2947;52.276;9.946;2023-01-28T04:52:22;1.40;99.90
5842;DHT22;2947;52.276;9.946;2023-01-28T04:54:48;1.50;99.90
5842;DHT22;2947;52.276;9.946;2023-01-28T04:57:14;1.50;99.90
5842;DHT22;2947;52.276;9.946;2023-01-28T04:59:42;1.50;99.90
5842;DHT22;2947;52.276;9.946;2023-01-28T05:02:07;1.50;99.90
5842;DHT22;2947;52.276;9.946;2023-01-28T05:04:33;1.50;99.90
5842;DHT22;2947;52.276;9.946;2023-01-28T05:06:58;1.50;99.90
5842;DHT22;2947;52.276;9.946;2023-01-28T05:09:24;1.50;99.90
5842;DHT22;2947;52.276;9.946;2023-01-28T05:11:51;1.50;99.90
5842;DHT22;2947;52.276;9.946;2023-01-28T05:14:17;1.50;99.90
5842;DHT22;2947;52.276;9.946;2023-01-28T05:16:42;1.50;99.90
5842;DHT22;2947;52.276;9.946;2023-01-28T05:19:08;1.50;99.90
5842;DHT22;2947;52.276;9.946;2023-01-28T05:21:35;1.40;99.90
5842;DHT22;2947;52.276;9.946;2023-01-28T05:24:01;1.50;99.90
5842;DHT22;2947;52.276;9.946;2023-01-28T05:26:26;1.50;99.90
5842;DHT22;2947;52.276;9.946;2023-01-28T05:28:52;1.50;99.90
5842;DHT22;2947;52.276;9.946;2023-01-28T05:31:18;1.50;99.90
5842;DHT22;2947;52.276;9.946;2023-01-28T05:33:43;1.50;99.90
5842;DHT22;2947;52.276;9.946;2023-01-28T05:36:09;1.60;99.90
5842;DHT22;2947;52.276;9.946;2023-01-28T05:38:35;1.60;99.90
5842;DHT22;2947;52.276;9.946;2023-01-28T05:41:00;1.50;99.90
5842;DHT22;2947;52.276;9.946;2023-01-28T05:43:26;1.40;99.90
5842;DHT22;2947;52.276;9.946;2023-01-28T05:45:53;1.40;99.90
5842;DHT22;2947;52.276;9.946;2023-01-28T05:48:18;1.40;90.10
5842;DHT22;2947;52.276;9.946;2023-01-28T05:50:46;1.30;90.20
5842;DHT22;2947;52.276;9.946;2023-01-28T05:53:12;1.40;99.90
5842;DHT22;2947;52.276;9.946;2023-01-28T05:55:38;1.40;99.90
5842;DHT22;2947;52.276;9.946;2023-01-28T05:58:03;1.40;99.90
5842;DHT22;2947;52.276;9.946;2023-01-28T06:00:29;1.50;99.90
5842;DHT22;2947;52.276;9.946;2023-01-28T06:02:55;1.50;99.90
5842;DHT22;2947;52.276;9.946;2023-01-28T06:05:20;1.50;99.90
5842;DHT22;2947;52.276;9.946;2023-01-28T06:07:46;1.50;99.90
5842;DHT22;2947;52.276;9.946;2023-01-28T06:10:13;1.50;99.90
5842;DHT22;2947;52.276;9.946;2023-01-28T06:12:40;1.50;99.90
5842;DHT22;2947;52.276;9.946;2023-01-28T06:15:06;1.50;99.90
5842;DHT22;2947;52.276;9.946;2023-01-28T06:17:32;1.50;99.90
5842;DHT22;2947;52.276;9.946;2023-01-28T06:19:58;1.50;99.90
5842;DHT22;2947;52.276;9.946;2023-01-28T06:22:23;1.40;99.90
5842;DHT22;2947;52.276;9.946;2023-01-28T06:24:49;1.40;99.90
5842;DHT22;2947;52.276;9.946;2023-01-28T06:27:15;1.50;99.90
5842;DHT22;2947;52.276;9.946;2023-01-28T06:29:41;1.50;99.90
5842;DHT22;2947;52.276;9.946;2023-01-28T06:32:06;1.50;99.90
5842;DHT22;2947;52.276;9.946;2023-01-28T06:34:32;1.50;99.90
5842;DHT22;2947;52.276;9.946;2023-01-28T06:36:58;1.60;99.90
5842;DHT22;2947;52.276;9.946;2023-01-28T06:39:24;1.60;99.90
5842;DHT22;2947;52.276;9.946;2023-01-28T06:41:51;1.60;99.90
5842;DHT22;2947;52.276;9.946;2023-01-28T06:44:17;1.50;99.90
5842;DHT22;2947;52.276;9.946;2023-01-28T06:46:43;1.50;99.90
5842;DHT22;2947;52.276;9.946;2023-01-28T06:49:08;1.50;99.90
5842;DHT22;2947;52.276;9.946;2023-01-28T06:51:36;1.50;99.90
5842;DHT22;2947;52.276;9.946;2023-01-28T06:54:02;1.50;99.90
5842;DHT22;2947;52.276;9.946;2023-01-28T06:56:27;1.50;99.90
5842;DHT22;2947;52.276;9.946;2023-01-28T06:58:53;1.40;99.90
5842;DHT22;2947;52.276;9.946;2023-01-28T07:01:19;1.50;99.90
5842;DHT22;2947;52.276;9.946;2023-01-28T07:03:45;1.50;99.90
5842;DHT22;2947;52.276;9.946;2023-01-28T07:06:10;1.50;96.00
5842;DHT22;2947;52.276;9.946;2023-01-28T07:08:36;1.40;34.50
5842;DHT22;2947;52.276;9.946;2023-01-28T07:11:02;1.40;47.90
5842;DHT22;2947;52.276;9.946;2023-01-28T07:13:29;1.40;71.70
5842;DHT22;2947;52.276;9.946;2023-01-28T07:15:54;1.40;52.90
5842;DHT22;2947;52.276;9.946;2023-01-28T07:18:20;1.40;22.70
5842;DHT22;2947;52.276;9.946;2023-01-28T07:20:46;1.40;34.00
5842;DHT22;2947;52.276;9.946;2023-01-28T07:23:12;1.40;90.20
5842;DHT22;2947;52.276;9.946;2023-01-28T07:25:38;1.40;99.90
5842;DHT22;2947;52.276;9.946;2023-01-28T07:28:03;1.40;99.90
5842;DHT22;2947;52.276;9.946;2023-01-28T07:30:29;1.40;99.90
5842;DHT22;2947;52.276;9.946;2023-01-28T07:32:57;1.40;99.90
5842;DHT22;2947;52.276;9.946;2023-01-28T07:35:24;1.40;99.90
5842;DHT22;2947;52.276;9.946;2023-01-28T07:37:53;1.50;99.90
5842;DHT22;2947;52.276;9.946;2023-01-28T07:40:20;1.40;99.90
5842;DHT22;2947;52.276;9.946;2023-01-28T07:42:46;1.40;39.50
5842;DHT22;2947;52.276;9.946;2023-01-28T07:45:12;1.40;2.80
5842;DHT22;2947;52.276;9.946;2023-01-28T07:47:38;1.40;1.00
5842;DHT22;2947;52.276;9.946;2023-01-28T07:50:04;1.40;1.00
5842;DHT22;2947;52.276;9.946;2023-01-28T07:52:30;1.50;1.00
5842;DHT22;2947;52.276;9.946;2023-01-28T07:55:02;1.50;2.50
5842;DHT22;2947;52.276;9.946;2023-01-28T07:57:29;1.50;35.00
5842;DHT22;2947;52.276;9.946;2023-01-28T07:59:55;1.50;93.90
5842;DHT22;2947;52.276;9.946;2023-01-28T08:02:21;1.50;19.20
5842;DHT22;2947;52.276;9.946;2023-01-28T08:04:46;1.50;25.50
5842;DHT22;2947;52.276;9.946;2023-01-28T08:07:12;1.50;1.00
5842;DHT22;2947;52.276;9.946;2023-01-28T08:09:38;1.60;1.00
5842;DHT22;2947;52.276;9.946;2023-01-28T08:12:04;1.60;1.00
5842;DHT22;2947;52.276;9.946;2023-01-28T08:14:29;1.60;3.30
5842;DHT22;2947;52.276;9.946;2023-01-28T08:16:56;1.60;19.70
5842;DHT22;2947;52.276;9.946;2023-01-28T08:19:22;1.60;1.00
5842;DHT22;2947;52.276;9.946;2023-01-28T08:21:48;1.50;1.00
5842;DHT22;2947;52.276;9.946;2023-01-28T08:24:13;1.50;1.00
5842;DHT22;2947;52.276;9.946;2023-01-28T08:26:39;1.50;1.00
5842;DHT22;2947;52.276;9.946;2023-01-28T08:29:08;1.60;1.00
5842;DHT22;2947;52.276;9.946;2023-01-28T08:31:34;1.60;1.00
5842;DHT22;2947;52.276;9.946;2023-01-28T08:33:59;1.60;1.00
5842;DHT22;2947;52.276;9.946;2023-01-28T08:36:26;1.60;1.00
5842;DHT22;2947;52.276;9.946;2023-01-28T08:38:53;1.50;1.00
5842;DHT22;2947;52.276;9.946;2023-01-28T08:41:22;1.50;1.00
5842;DHT22;2947;52.276;9.946;2023-01-28T08:43:51;1.50;1.00
5842;DHT22;2947;52.276;9.946;2023-01-28T08:46:17;1.50;1.00
5842;DHT22;2947;52.276;9.946;2023-01-28T08:48:44;1.40;1.00
5842;DHT22;2947;52.276;9.946;2023-01-28T08:51:10;1.40;1.00
5842;DHT22;2947;52.276;9.946;2023-01-28T08:53:35;1.50;1.00
5842;DHT22;2947;52.276;9.946;2023-01-28T08:56:01;1.60;1.00
5842;DHT22;2947;52.276;9.946;2023-01-28T08:58:27;1.60;1.00
5842;DHT22;2947;52.276;9.946;2023-01-28T09:00:52;1.70;1.00
5842;DHT22;2947;52.276;9.946;2023-01-28T09:03:18;1.60;1.00
5842;DHT22;2947;52.276;9.946;2023-01-28T09:05:44;1.70;1.00
5842;DHT22;2947;52.276;9.946;2023-01-28T09:08:13;1.60;1.00
5842;DHT22;2947;52.276;9.946;2023-01-28T09:10:39;1.70;1.00
5842;DHT22;2947;52.276;9.946;2023-01-28T09:13:08;1.70;1.00
5842;DHT22;2947;52.276;9.946;2023-01-28T09:15:38;1.80;1.00
5842;DHT22;2947;52.276;9.946;2023-01-28T09:18:04;1.80;1.00
5842;DHT22;2947;52.276;9.946;2023-01-28T09:20:30;1.80;1.00
5842;DHT22;2947;52.276;9.946;2023-01-28T09:22:58;1.80;1.00
5842;DHT22;2947;52.276;9.946;2023-01-28T09:25:24;1.80;1.00
5842;DHT22;2947;52.276;9.946;2023-01-28T09:27:50;1.90;1.00
5842;DHT22;2947;52.276;9.946;2023-01-28T09:30:16;1.90;1.00
5842;DHT22;2947;52.276;9.946;2023-01-28T09:32:41;1.90;1.00
5842;DHT22;2947;52.276;9.946;2023-01-28T09:35:08;1.80;1.00
5842;DHT22;2947;52.276;9.946;2023-01-28T09:37:34;1.90;1.00
5842;DHT22;2947;52.276;9.946;2023-01-28T09:40:00;1.90;1.00
5842;DHT22;2947;52.276;9.946;2023-01-28T09:45:24;2.00;1.00
5842;DHT22;2947;52.276;9.946;2023-01-28T09:48:04;2.00;1.00
5842;DHT22;2947;52.276;9.946;2023-01-28T09:50:37;2.00;1.00
5842;DHT22;2947;52.276;9.946;2023-01-28T09:56:03;2.00;1.00
5842;DHT22;2947;52.276;9.946;2023-01-28T09:58:36;2.00;1.00
5842;DHT22;2947;52.276;9.946;2023-01-28T10:10:17;2.10;1.00
5842;DHT22;2947;52.276;9.946;2023-01-28T10:12:59;2.10;1.00
5842;DHT22;2947;52.276;9.946;2023-01-28T10:21:26;2.10;1.00
5842;DHT22;2947;52.276;9.946;2023-01-28T10:26:47;2.10;1.00
5842;DHT22;2947;52.276;9.946;2023-01-28T10:29:17;2.10;1.00
5842;DHT22;2947;52.276;9.946;2023-01-28T10:34:41;2.20;1.00
5842;DHT22;2947;52.276;9.946;2023-01-28T10:37:14;2.20;1.00
5842;DHT22;2947;52.276;9.946;2023-01-28T10:39:41;2.20;1.00
5842;DHT22;2947;52.276;9.946;2023-01-28T10:42:34;2.20;1.00
5842;DHT22;2947;52.276;9.946;2023-01-28T10:48:20;2.20;1.00
5842;DHT22;2947;52.276;9.946;2023-01-28T10:50:59;2.10;1.00
5842;DHT22;2947;52.276;9.946;2023-01-28T10:53:41;2.10;1.00
5842;DHT22;2947;52.276;9.946;2023-01-28T10:56:14;2.00;1.00
5842;DHT22;2947;52.276;9.946;2023-01-28T10:59:00;2.10;1.00
5842;DHT22;2947;52.276;9.946;2023-01-28T11:02:04;2.10;1.00
5842;DHT22;2947;52.276;9.946;2023-01-28T11:04:33;2.10;1.00
5842;DHT22;2947;52.276;9.946;2023-01-28T11:07:16;2.10;1.00
5842;DHT22;2947;52.276;9.946;2023-01-28T11:09:46;2.00;1.00
5842;DHT22;2947;52.276;9.946;2023-01-28T11:12:28;2.00;1.00
5842;DHT22;2947;52.276;9.946;2023-01-28T11:15:04;1.90;1.00
5842;DHT22;2947;52.276;9.946;2023-01-28T11:17:33;1.90;1.00
5842;DHT22;2947;52.276;9.946;2023-01-28T11:20:21;2.00;1.00
5842;DHT22;2947;52.276;9.946;2023-01-28T11:22:50;1.90;1.00
5842;DHT22;2947;52.276;9.946;2023-01-28T11:27:55;2.00;1.00
5842;DHT22;2947;52.276;9.946;2023-01-28T11:30:33;2.00;1.00
5842;DHT22;2947;52.276;9.946;2023-01-28T11:33:18;2.00;1.00
5842;DHT22;2947;52.276;9.946;2023-01-28T11:35:57;2.00;1.00
5842;DHT22;2947;52.276;9.946;2023-01-28T11:38:30;2.00;1.00
5842;DHT22;2947;52.276;9.946;2023-01-28T11:40:57;2.00;1.00
5842;DHT22;2947;52.276;9.946;2023-01-28T11:43:27;2.00;1.00
5842;DHT22;2947;52.276;9.946;2023-01-28T11:46:12;2.10;1.00
5842;DHT22;2947;52.276;9.946;2023-01-28T11:49:17;2.10;1.00
5842;DHT22;2947;52.276;9.946;2023-01-28T11:51:57;2.10;1.00
5842;DHT22;2947;52.276;9.946;2023-01-28T11:57:22;2.10;1.00
5842;DHT22;2947;52.276;9.946;2023-01-28T12:02:50;2.10;1.00
5842;DHT22;2947;52.276;9.946;2023-01-28T12:05:39;2.10;1.00
5842;DHT22;2947;52.276;9.946;2023-01-28T12:08:27;2.10;1.00
5842;DHT22;2947;52.276;9.946;2023-01-28T12:14:35;2.10;1.00
5842;DHT22;2947;52.276;9.946;2023-01-28T12:17:13;2.10;1.00
5842;DHT22;2947;52.276;9.946;2023-01-28T12:20:07;2.20;1.00
5842;DHT22;2947;52.276;9.946;2023-01-28T12:32:18;2.30;1.00
5842;DHT22;2947;52.276;9.946;2023-01-28T12:38:12;2.30;1.00
5842;DHT22;2947;52.276;9.946;2023-01-28T12:46:17;2.30;1.00
5842;DHT22;2947;52.276;9.946;2023-01-28T12:48:58;2.50;1.00
5842;DHT22;2947;52.276;9.946;2023-01-28T12:54:26;2.50;1.00
5842;DHT22;2947;52.276;9.946;2023-01-28T12:56:55;2.40;1.00
5842;DHT22;2947;52.276;9.946;2023-01-28T12:59:33;2.40;1.00
5842;DHT22;2947;52.276;9.946;2023-01-28T13:04:53;2.30;1.00
5842;DHT22;2947;52.276;9.946;2023-01-28T13:07:47;2.40;1.00
5842;DHT22;2947;52.276;9.946;2023-01-28T13:10:22;2.40;1.00
5842;DHT22;2947;52.276;9.946;2023-01-28T13:12:51;2.60;1.00
5842;DHT22;2947;52.276;9.946;2023-01-28T13:15:19;2.80;1.00
5842;DHT22;2947;52.276;9.946;2023-01-28T13:18:03;2.90;1.00
5842;DHT22;2947;52.276;9.946;2023-01-28T13:23:05;3.00;1.00
5842;DHT22;2947;52.276;9.946;2023-01-28T13:25:52;3.10;1.00
5842;DHT22;2947;52.276;9.946;2023-01-28T13:28:30;3.00;99.90
5842;DHT22;2947;52.276;9.946;2023-01-28T13:31:08;3.20;99.90
5842;DHT22;2947;52.276;9.946;2023-01-28T13:36:38;3.10;99.90
5842;DHT22;2947;52.276;9.946;2023-01-28T13:41:51;3.20;99.90
5842;DHT22;2947;52.276;9.946;2023-01-28T13:46:46;3.10;99.90
5842;DHT22;2947;52.276;9.946;2023-01-28T13:49:17;3.10;99.90
5842;DHT22;2947;52.276;9.946;2023-01-28T13:51:58;3.10;99.90
5842;DHT22;2947;52.276;9.946;2023-01-28T13:54:32;3.10;99.90
5842;DHT22;2947;52.276;9.946;2023-01-28T14:05:30;3.10;99.90
5842;DHT22;2947;52.276;9.946;2023-01-28T14:11:09;3.00;99.90
5842;DHT22;2947;52.276;9.946;2023-01-28T14:16:43;2.90;99.90
5842;DHT22;2947;52.276;9.946;2023-01-28T14:19:33;2.90;99.90
5842;DHT22;2947;52.276;9.946;2023-01-28T14:22:06;2.90;99.90
5842;DHT22;2947;52.276;9.946;2023-01-28T14:24:32;2.90;99.90
5842;DHT22;2947;52.276;9.946;2023-01-28T14:32:30;2.80;99.90
5842;DHT22;2947;52.276;9.946;2023-01-28T14:34:59;2.80;99.90
5842;DHT22;2947;52.276;9.946;2023-01-28T14:37:30;2.80;99.90
5842;DHT22;2947;52.276;9.946;2023-01-28T14:42:43;2.60;99.90
5842;DHT22;2947;52.276;9.946;2023-01-28T14:57:36;2.50;1.00
5842;DHT22;2947;52.276;9.946;2023-01-28T15:00:18;2.50;99.90
5842;DHT22;2947;52.276;9.946;2023-01-28T15:02:46;2.60;1.00
5842;DHT22;2947;52.276;9.946;2023-01-28T15:05:21;2.60;1.00
5842;DHT22;2947;52.276;9.946;2023-01-28T15:07:51;2.60;1.00
5842;DHT22;2947;52.276;9.946;2023-01-28T15:10:20;2.60;1.00
5842;DHT22;2947;52.276;9.946;2023-01-28T15:12:56;2.40;99.90
5842;DHT22;2947;52.276;9.946;2023-01-28T15:15:30;2.30;1.00
5842;DHT22;2947;52.276;9.946;2023-01-28T15:18:15;2.20;99.90
5842;DHT22;2947;52.276;9.946;2023-01-28T15:20:53;2.10;1.00
5842;DHT22;2947;52.276;9.946;2023-01-28T15:23:40;2.10;1.00
5842;DHT22;2947;52.276;9.946;2023-01-28T15:26:19;2.00;1.00
5842;DHT22;2947;52.276;9.946;2023-01-28T15:28:48;2.10;1.00
5842;DHT22;2947;52.276;9.946;2023-01-28T15:31:26;2.00;1.00
5842;DHT22;2947;52.276;9.946;2023-01-28T15:34:16;2.00;1.00
5842;DHT22;2947;52.276;9.946;2023-01-28T15:36:44;2.00;1.00
5842;DHT22;2947;52.276;9.946;2023-01-28T15:39:14;2.00;1.00
5842;DHT22;2947;52.276;9.946;2023-01-28T15:41:43;2.00;1.00
5842;DHT22;2947;52.276;9.946;2023-01-28T15:44:17;2.00;1.00
5842;DHT22;2947;52.276;9.946;2023-01-28T15:47:00;1.90;1.00
5842;DHT22;2947;52.276;9.946;2023-01-28T15:49:30;1.90;1.00
5842;DHT22;2947;52.276;9.946;2023-01-28T15:51:59;1.90;1.00
5842;DHT22;2947;52.276;9.946;2023-01-28T15:54:25;1.90;1.00
5842;DHT22;2947;52.276;9.946;2023-01-28T15:56:54;1.90;1.00
5842;DHT22;2947;52.276;9.946;2023-01-28T15:59:28;1.80;1.00
5842;DHT22;2947;52.276;9.946;2023-01-28T16:02:23;1.90;1.00
5842;DHT22;2947;52.276;9.946;2023-01-28T16:05:04;1.80;1.00
5842;DHT22;2947;52.276;9.946;2023-01-28T16:07:43;1.80;1.00
5842;DHT22;2947;52.276;9.946;2023-01-28T16:10:19;1.80;1.00
5842;DHT22;2947;52.276;9.946;2023-01-28T16:12:48;1.80;1.00
5842;DHT22;2947;52.276;9.946;2023-01-28T16:15:18;1.70;1.00
5842;DHT22;2947;52.276;9.946;2023-01-28T16:17:49;1.70;1.00
5842;DHT22;2947;52.276;9.946;2023-01-28T16:22:47;1.60;1.00
5842;DHT22;2947;52.276;9.946;2023-01-28T16:25:28;1.60;1.00
5842;DHT22;2947;52.276;9.946;2023-01-28T16:27:57;1.50;1.00
5842;DHT22;2947;52.276;9.946;2023-01-28T16:30:24;1.40;1.00
5842;DHT22;2947;52.276;9.946;2023-01-28T16:32:50;1.40;1.00
5842;DHT22;2947;52.276;9.946;2023-01-28T16:35:22;1.40;1.00
5842;DHT22;2947;52.276;9.946;2023-01-28T16:37:50;1.30;42.80
5842;DHT22;2947;52.276;9.946;2023-01-28T16:40:19;1.30;95.00
5842;DHT22;2947;52.276;9.946;2023-01-28T16:42:48;1.30;99.70
5842;DHT22;2947;52.276;9.946;2023-01-28T16:45:17;1.20;90.50
5842;DHT22;2947;52.276;9.946;2023-01-28T16:47:48;1.20;99.90
5842;DHT22;2947;52.276;9.946;2023-01-28T16:50:15;1.20;99.90
5842;DHT22;2947;52.276;9.946;2023-01-28T16:52:43;1.20;99.90
5842;DHT22;2947;52.276;9.946;2023-01-28T16:55:12;1.10;99.90
5842;DHT22;2947;52.276;9.946;2023-01-28T16:57:39;1.00;99.90
5842;DHT22;2947;52.276;9.946;2023-01-28T17:00:07;0.90;99.90
5842;DHT22;2947;52.276;9.946;2023-01-28T17:02:36;0.80;99.90
5842;DHT22;2947;52.276;9.946;2023-01-28T17:05:01;0.80;99.90
5842;DHT22;2947;52.276;9.946;2023-01-28T17:07:27;0.90;99.90
5842;DHT22;2947;52.276;9.946;2023-01-28T17:09:53;0.90;99.90
5842;DHT22;2947;52.276;9.946;2023-01-28T17:12:19;0.90;99.90
5842;DHT22;2947;52.276;9.946;2023-01-28T17:14:44;0.80;99.90
5842;DHT22;2947;52.276;9.946;2023-01-28T17:17:10;0.80;99.90
5842;DHT22;2947;52.276;9.946;2023-01-28T17:19:36;0.80;99.90
5842;DHT22;2947;52.276;9.946;2023-01-28T17:22:01;0.80;99.90
5842;DHT22;2947;52.276;9.946;2023-01-28T17:24:28;0.80;99.90
5842;DHT22;2947;52.276;9.946;2023-01-28T17:26:54;0.80;99.90
5842;DHT22;2947;52.276;9.946;2023-01-28T17:29:20;0.70;99.90
5842;DHT22;2947;52.276;9.946;2023-01-28T17:31:45;0.70;99.90
5842;DHT22;2947;52.276;9.946;2023-01-28T17:34:11;0.60;99.90
5842;DHT22;2947;52.276;9.946;2023-01-28T17:36:37;0.60;99.90
5842;DHT22;2947;52.276;9.946;2023-01-28T17:39:03;0.50;99.90
5842;DHT22;2947;52.276;9.946;2023-01-28T17:41:32;0.40;1.00
5842;DHT22;2947;52.276;9.946;2023-01-28T17:43:58;0.40;1.00
5842;DHT22;2947;52.276;9.946;2023-01-28T17:46:25;0.30;1.00
5842;DHT22;2947;52.276;9.946;2023-01-28T17:48:51;0.40;99.90
5842;DHT22;2947;52.276;9.946;2023-01-28T17:51:17;0.40;99.90
5842;DHT22;2947;52.276;9.946;2023-01-28T17:53:51;0.40;99.90
5842;DHT22;2947;52.276;9.946;2023-01-28T17:56:24;0.30;11.10
5842;DHT22;2947;52.276;9.946;2023-01-28T17:58:54;0.20;1.00
5842;DHT22;2947;52.276;9.946;2023-01-28T18:01:26;0.20;99.90
5842;DHT22;2947;52.276;9.946;2023-01-28T18:03:52;0.20;99.90
5842;DHT22;2947;52.276;9.946;2023-01-28T18:06:19;0.20;1.00
5842;DHT22;2947;52.276;9.946;2023-01-28T18:08:45;0.20;1.00
5842;DHT22;2947;52.276;9.946;2023-01-28T18:11:13;0.20;1.00
5842;DHT22;2947;52.276;9.946;2023-01-28T18:13:40;0.20;1.00
5842;DHT22;2947;52.276;9.946;2023-01-28T18:16:10;0.20;1.00
5842;DHT22;2947;52.276;9.946;2023-01-28T18:18:40;0.10;18.40
5842;DHT22;2947;52.276;9.946;2023-01-28T18:21:07;0.10;99.90
5842;DHT22;2947;52.276;9.946;2023-01-28T18:23:41;0.10;99.90
5842;DHT22;2947;52.276;9.946;2023-01-28T18:26:07;0.10;1.00
5842;DHT22;2947;52.276;9.946;2023-01-28T18:28:33;0.10;99.90
5842;DHT22;2947;52.276;9.946;2023-01-28T18:31:04;0.10;28.90
5842;DHT22;2947;52.276;9.946;2023-01-28T18:33:31;0.10;93.80
5842;DHT22;2947;52.276;9.946;2023-01-28T18:35:56;0.10;99.90
5842;DHT22;2947;52.276;9.946;2023-01-28T18:38:22;0.10;1.00
5842;DHT22;2947;52.276;9.946;2023-01-28T18:40:53;0.10;1.00
5842;DHT22;2947;52.276;9.946;2023-01-28T18:43:20;0.10;1.00
5842;DHT22;2947;52.276;9.946;2023-01-28T18:45:45;0.10;1.00
5842;DHT22;2947;52.276;9.946;2023-01-28T18:48:15;0.10;1.00
5842;DHT22;2947;52.276;9.946;2023-01-28T18:50:41;0.00;1.00
5842;DHT22;2947;52.276;9.946;2023-01-28T18:53:14;-0.10;38.90
5842;DHT22;2947;52.276;9.946;2023-01-28T18:55:39;-0.20;1.00
5842;DHT22;2947;52.276;9.946;2023-01-28T18:58:06;-0.20;1.00
5842;DHT22;2947;52.276;9.946;2023-01-28T19:00:32;-0.20;99.90
5842;DHT22;2947;52.276;9.946;2023-01-28T19:03:00;-0.20;1.00